Terminal Aerodrome Forecast
Issued by NWS Goodland, KS

Home | Current Version | Previous Version | Text Only | Print | Product List | Glossary On
Versions: 1 2 3 4 5 6 7 8 9 10 11 12 13 14 15
000
FTUS43 KGLD 131500 AAB
TAFGLD
TAF AMD
KGLD 131521Z 1315/1412 36025G35KT 5SM -SN BR OVC007
     FM131700 36025G37KT 2SM -SN OVC007
     FM132100 36026G37KT 3SM -SN OVC010
     FM140900 35013KT P6SM OVC050=

USA.gov is the U.S. government's official web portal to all federal, state and local government web resources and services.